sensor_id;sensor_type;location;lat;lon;timestamp;temperature;humidity
32787;DHT22;19139;49.372;8.580;2023-06-22T00:00:11;27.30;92.60
32787;DHT22;19139;49.372;8.580;2023-06-22T00:02:38;27.30;92.60
32787;DHT22;19139;49.372;8.580;2023-06-22T00:05:05;27.30;92.60
32787;DHT22;19139;49.372;8.580;2023-06-22T00:07:32;27.30;92.60
32787;DHT22;19139;49.372;8.580;2023-06-22T00:09:59;27.30;92.60
32787;DHT22;19139;49.372;8.580;2023-06-22T00:12:25;27.30;92.60
32787;DHT22;19139;49.372;8.580;2023-06-22T00:14:52;27.30;92.60
32787;DHT22;19139;49.372;8.580;2023-06-22T00:17:19;27.30;92.60
32787;DHT22;19139;49.372;8.580;2023-06-22T00:19:47;27.30;92.60
32787;DHT22;19139;49.372;8.580;2023-06-22T00:22:14;27.30;92.60
32787;DHT22;19139;49.372;8.580;2023-06-22T00:24:40;27.30;92.60
32787;DHT22;19139;49.372;8.580;2023-06-22T00:27:07;27.30;92.50
32787;DHT22;19139;49.372;8.580;2023-06-22T00:29:34;27.30;92.50
32787;DHT22;19139;49.372;8.580;2023-06-22T00:32:00;27.30;92.50
32787;DHT22;19139;49.372;8.580;2023-06-22T00:34:27;27.30;92.50
32787;DHT22;19139;49.372;8.580;2023-06-22T00:36:53;27.30;92.50
32787;DHT22;19139;49.372;8.580;2023-06-22T00:39:20;27.30;92.50
32787;DHT22;19139;49.372;8.580;2023-06-22T00:41:47;27.30;92.50
32787;DHT22;19139;49.372;8.580;2023-06-22T00:44:13;27.30;92.70
32787;DHT22;19139;49.372;8.580;2023-06-22T00:46:40;27.30;92.90
32787;DHT22;19139;49.372;8.580;2023-06-22T00:49:06;27.30;93.00
32787;DHT22;19139;49.372;8.580;2023-06-22T00:51:33;27.30;93.20
32787;DHT22;19139;49.372;8.580;2023-06-22T00:54:03;27.20;93.30
32787;DHT22;19139;49.372;8.580;2023-06-22T00:56:32;27.20;93.40
32787;DHT22;19139;49.372;8.580;2023-06-22T00:58:59;27.20;93.40
32787;DHT22;19139;49.372;8.580;2023-06-22T01:01:26;27.20;93.30
32787;DHT22;19139;49.372;8.580;2023-06-22T01:03:53;27.20;93.10
32787;DHT22;19139;49.372;8.580;2023-06-22T01:06:29;27.20;93.10
32787;DHT22;19139;49.372;8.580;2023-06-22T01:09:08;27.30;93.20
32787;DHT22;19139;49.372;8.580;2023-06-22T01:11:42;27.30;93.10
32787;DHT22;19139;49.372;8.580;2023-06-22T01:14:18;27.30;93.00
32787;DHT22;19139;49.372;8.580;2023-06-22T01:16:48;27.30;93.00
32787;DHT22;19139;49.372;8.580;2023-06-22T01:19:39;27.30;93.10
32787;DHT22;19139;49.372;8.580;2023-06-22T01:22:11;27.30;93.20
32787;DHT22;19139;49.372;8.580;2023-06-22T01:29:51;27.30;93.40
32787;DHT22;19139;49.372;8.580;2023-06-22T01:32:19;27.30;93.30
32787;DHT22;19139;49.372;8.580;2023-06-22T01:34:47;27.30;93.20
32787;DHT22;19139;49.372;8.580;2023-06-22T01:37:14;27.30;93.20
32787;DHT22;19139;49.372;8.580;2023-06-22T01:39:42;27.30;93.10
32787;DHT22;19139;49.372;8.580;2023-06-22T01:42:09;27.30;93.10
32787;DHT22;19139;49.372;8.580;2023-06-22T01:44:37;27.30;93.00
32787;DHT22;19139;49.372;8.580;2023-06-22T01:47:04;27.30;92.90
32787;DHT22;19139;49.372;8.580;2023-06-22T01:49:31;27.30;92.90
32787;DHT22;19139;49.372;8.580;2023-06-22T01:51:58;27.30;92.90
32787;DHT22;19139;49.372;8.580;2023-06-22T01:54:25;27.30;92.90
32787;DHT22;19139;49.372;8.580;2023-06-22T01:56:51;27.30;92.90
32787;DHT22;19139;49.372;8.580;2023-06-22T01:59:34;27.30;92.80
32787;DHT22;19139;49.372;8.580;2023-06-22T02:02:09;27.30;92.80
32787;DHT22;19139;49.372;8.580;2023-06-22T02:05:08;27.30;92.80
32787;DHT22;19139;49.372;8.580;2023-06-22T02:07:42;27.30;92.80
32787;DHT22;19139;49.372;8.580;2023-06-22T02:10:12;27.30;92.80
32787;DHT22;19139;49.372;8.580;2023-06-22T02:12:42;27.30;92.80
32787;DHT22;19139;49.372;8.580;2023-06-22T02:15:10;27.30;92.70
32787;DHT22;19139;49.372;8.580;2023-06-22T02:17:38;27.30;92.70
32787;DHT22;19139;49.372;8.580;2023-06-22T02:20:06;27.30;92.70
32787;DHT22;19139;49.372;8.580;2023-06-22T02:22:34;27.30;92.70
32787;DHT22;19139;49.372;8.580;2023-06-22T02:25:01;27.30;92.70
32787;DHT22;19139;49.372;8.580;2023-06-22T02:27:27;27.30;92.60
32787;DHT22;19139;49.372;8.580;2023-06-22T02:29:54;27.30;92.60
32787;DHT22;19139;49.372;8.580;2023-06-22T02:32:21;27.30;92.60
32787;DHT22;19139;49.372;8.580;2023-06-22T02:34:47;27.30;92.60
32787;DHT22;19139;49.372;8.580;2023-06-22T02:37:14;27.30;92.60
32787;DHT22;19139;49.372;8.580;2023-06-22T02:39:41;27.30;92.60
32787;DHT22;19139;49.372;8.580;2023-06-22T02:42:08;27.30;92.70
32787;DHT22;19139;49.372;8.580;2023-06-22T02:44:37;27.30;92.60
32787;DHT22;19139;49.372;8.580;2023-06-22T02:47:04;27.30;93.00
32787;DHT22;19139;49.372;8.580;2023-06-22T02:49:31;27.30;92.60
32787;DHT22;19139;49.372;8.580;2023-06-22T02:51:57;27.30;92.60
32787;DHT22;19139;49.372;8.580;2023-06-22T02:54:24;27.30;92.60
32787;DHT22;19139;49.372;8.580;2023-06-22T02:56:51;27.30;92.60
32787;DHT22;19139;49.372;8.580;2023-06-22T02:59:17;27.30;92.60
32787;DHT22;19139;49.372;8.580;2023-06-22T03:01:50;27.30;92.60
32787;DHT22;19139;49.372;8.580;2023-06-22T03:04:17;27.30;92.60
32787;DHT22;19139;49.372;8.580;2023-06-22T03:06:44;27.30;92.60
32787;DHT22;19139;49.372;8.580;2023-06-22T03:09:11;27.30;92.60
32787;DHT22;19139;49.372;8.580;2023-06-22T03:11:37;27.30;92.60
32787;DHT22;19139;49.372;8.580;2023-06-22T03:14:04;27.30;92.60
32787;DHT22;19139;49.372;8.580;2023-06-22T03:16:31;27.30;92.60
32787;DHT22;19139;49.372;8.580;2023-06-22T03:18:57;27.30;92.60
32787;DHT22;19139;49.372;8.580;2023-06-22T03:21:29;27.30;92.60
32787;DHT22;19139;49.372;8.580;2023-06-22T03:23:55;27.30;92.60
32787;DHT22;19139;49.372;8.580;2023-06-22T03:26:22;27.30;92.60
32787;DHT22;19139;49.372;8.580;2023-06-22T03:28:50;27.30;92.60
32787;DHT22;19139;49.372;8.580;2023-06-22T03:31:16;27.30;92.60
32787;DHT22;19139;49.372;8.580;2023-06-22T03:33:49;27.30;92.60
32787;DHT22;19139;49.372;8.580;2023-06-22T03:36:16;27.30;92.60
32787;DHT22;19139;49.372;8.580;2023-06-22T03:38:46;27.30;92.60
32787;DHT22;19139;49.372;8.580;2023-06-22T03:41:13;27.30;92.60
32787;DHT22;19139;49.372;8.580;2023-06-22T03:43:41;27.30;92.60
32787;DHT22;19139;49.372;8.580;2023-06-22T03:46:07;27.30;92.50
32787;DHT22;19139;49.372;8.580;2023-06-22T03:48:34;27.30;92.60
32787;DHT22;19139;49.372;8.580;2023-06-22T03:51:01;27.30;92.50
32787;DHT22;19139;49.372;8.580;2023-06-22T03:53:29;27.30;92.50
32787;DHT22;19139;49.372;8.580;2023-06-22T03:55:56;27.30;92.50
32787;DHT22;19139;49.372;8.580;2023-06-22T03:58:23;27.30;92.50
32787;DHT22;19139;49.372;8.580;2023-06-22T04:00:51;27.30;92.60
32787;DHT22;19139;49.372;8.580;2023-06-22T04:03:19;27.30;92.50
32787;DHT22;19139;49.372;8.580;2023-06-22T04:05:47;27.30;92.50
32787;DHT22;19139;49.372;8.580;2023-06-22T04:08:14;27.30;92.50
32787;DHT22;19139;49.372;8.580;2023-06-22T04:10:41;27.30;92.60
32787;DHT22;19139;49.372;8.580;2023-06-22T04:13:07;27.30;92.50
32787;DHT22;19139;49.372;8.580;2023-06-22T04:15:35;27.30;92.50
32787;DHT22;19139;49.372;8.580;2023-06-22T04:18:01;27.30;92.50
32787;DHT22;19139;49.372;8.580;2023-06-22T04:20:28;27.30;92.50
32787;DHT22;19139;49.372;8.580;2023-06-22T04:22:56;27.30;92.50
32787;DHT22;19139;49.372;8.580;2023-06-22T04:25:22;27.30;92.50
32787;DHT22;19139;49.372;8.580;2023-06-22T04:27:49;27.30;92.50
32787;DHT22;19139;49.372;8.580;2023-06-22T04:30:16;27.30;92.50
32787;DHT22;19139;49.372;8.580;2023-06-22T04:32:44;27.30;92.40
32787;DHT22;19139;49.372;8.580;2023-06-22T04:35:11;27.30;92.40
32787;DHT22;19139;49.372;8.580;2023-06-22T04:37:38;27.30;92.40
32787;DHT22;19139;49.372;8.580;2023-06-22T04:40:06;27.30;92.40
32787;DHT22;19139;49.372;8.580;2023-06-22T04:42:34;27.30;92.40
32787;DHT22;19139;49.372;8.580;2023-06-22T04:45:01;27.30;92.40
32787;DHT22;19139;49.372;8.580;2023-06-22T04:47:28;27.30;92.40
32787;DHT22;19139;49.372;8.580;2023-06-22T04:49:55;27.30;92.40
32787;DHT22;19139;49.372;8.580;2023-06-22T04:52:21;27.30;92.40
32787;DHT22;19139;49.372;8.580;2023-06-22T04:54:49;27.30;92.30
32787;DHT22;19139;49.372;8.580;2023-06-22T04:57:17;27.30;92.40
32787;DHT22;19139;49.372;8.580;2023-06-22T04:59:43;27.30;92.30
32787;DHT22;19139;49.372;8.580;2023-06-22T05:02:10;27.30;92.70
32787;DHT22;19139;49.372;8.580;2023-06-22T05:04:37;27.30;92.40
32787;DHT22;19139;49.372;8.580;2023-06-22T05:07:07;27.30;92.40
32787;DHT22;19139;49.372;8.580;2023-06-22T05:09:34;27.30;92.30
32787;DHT22;19139;49.372;8.580;2023-06-22T05:12:02;27.30;92.30
32787;DHT22;19139;49.372;8.580;2023-06-22T05:14:29;27.30;92.30
32787;DHT22;19139;49.372;8.580;2023-06-22T05:16:56;27.30;92.30
32787;DHT22;19139;49.372;8.580;2023-06-22T05:19:25;27.30;92.30
32787;DHT22;19139;49.372;8.580;2023-06-22T05:21:57;27.30;92.40
32787;DHT22;19139;49.372;8.580;2023-06-22T05:24:24;27.30;92.40
32787;DHT22;19139;49.372;8.580;2023-06-22T05:27:09;27.30;92.30
32787;DHT22;19139;49.372;8.580;2023-06-22T05:29:37;27.30;92.30
32787;DHT22;19139;49.372;8.580;2023-06-22T05:32:21;27.30;92.30
32787;DHT22;19139;49.372;8.580;2023-06-22T05:34:47;27.30;92.30
32787;DHT22;19139;49.372;8.580;2023-06-22T05:37:14;27.30;92.30
32787;DHT22;19139;49.372;8.580;2023-06-22T05:39:41;27.30;94.80
32787;DHT22;19139;49.372;8.580;2023-06-22T05:42:07;27.20;96.60
32787;DHT22;19139;49.372;8.580;2023-06-22T05:44:36;27.10;97.40
32787;DHT22;19139;49.372;8.580;2023-06-22T05:47:04;27.00;97.70
32787;DHT22;19139;49.372;8.580;2023-06-22T05:49:31;27.00;98.20
32787;DHT22;19139;49.372;8.580;2023-06-22T05:51:59;26.90;97.60
32787;DHT22;19139;49.372;8.580;2023-06-22T05:54:30;26.80;96.90
32787;DHT22;19139;49.372;8.580;2023-06-22T05:56:56;26.80;96.80
32787;DHT22;19139;49.372;8.580;2023-06-22T05:59:23;26.80;96.60
32787;DHT22;19139;49.372;8.580;2023-06-22T06:01:49;26.80;96.10
32787;DHT22;19139;49.372;8.580;2023-06-22T06:04:17;26.80;95.80
32787;DHT22;19139;49.372;8.580;2023-06-22T06:06:45;26.80;96.20
32787;DHT22;19139;49.372;8.580;2023-06-22T06:09:14;26.80;96.30
32787;DHT22;19139;49.372;8.580;2023-06-22T06:11:41;26.80;96.30
32787;DHT22;19139;49.372;8.580;2023-06-22T06:14:08;26.70;96.00
32787;DHT22;19139;49.372;8.580;2023-06-22T06:16:35;26.70;96.50
32787;DHT22;19139;49.372;8.580;2023-06-22T06:19:02;26.70;96.60
32787;DHT22;19139;49.372;8.580;2023-06-22T06:21:28;26.70;96.60
32787;DHT22;19139;49.372;8.580;2023-06-22T06:23:56;26.70;96.20
32787;DHT22;19139;49.372;8.580;2023-06-22T06:26:23;26.70;95.70
32787;DHT22;19139;49.372;8.580;2023-06-22T06:28:56;26.70;95.80
32787;DHT22;19139;49.372;8.580;2023-06-22T06:31:24;26.70;95.60
32787;DHT22;19139;49.372;8.580;2023-06-22T06:33:50;26.70;95.80
32787;DHT22;19139;49.372;8.580;2023-06-22T06:36:17;26.70;95.50
32787;DHT22;19139;49.372;8.580;2023-06-22T06:38:44;26.70;95.90
32787;DHT22;19139;49.372;8.580;2023-06-22T06:41:11;26.80;96.10
32787;DHT22;19139;49.372;8.580;2023-06-22T06:43:37;26.80;95.90
32787;DHT22;19139;49.372;8.580;2023-06-22T06:46:04;26.80;95.70
32787;DHT22;19139;49.372;8.580;2023-06-22T06:48:31;26.80;95.90
32787;DHT22;19139;49.372;8.580;2023-06-22T06:50:57;26.80;95.90
32787;DHT22;19139;49.372;8.580;2023-06-22T06:53:24;26.80;95.80
32787;DHT22;19139;49.372;8.580;2023-06-22T06:55:51;26.80;95.80
32787;DHT22;19139;49.372;8.580;2023-06-22T06:58:17;26.80;95.80
32787;DHT22;19139;49.372;8.580;2023-06-22T07:00:44;26.80;95.80
32787;DHT22;19139;49.372;8.580;2023-06-22T07:03:11;26.80;95.50
32787;DHT22;19139;49.372;8.580;2023-06-22T07:05:38;26.80;95.60
32787;DHT22;19139;49.372;8.580;2023-06-22T07:08:04;26.80;95.50
32787;DHT22;19139;49.372;8.580;2023-06-22T07:10:31;26.80;95.70
32787;DHT22;19139;49.372;8.580;2023-06-22T07:12:58;26.90;95.40
32787;DHT22;19139;49.372;8.580;2023-06-22T07:15:25;26.90;95.20
32787;DHT22;19139;49.372;8.580;2023-06-22T07:17:51;26.90;95.30
32787;DHT22;19139;49.372;8.580;2023-06-22T07:20:18;26.90;95.40
32787;DHT22;19139;49.372;8.580;2023-06-22T07:22:46;26.90;95.40
32787;DHT22;19139;49.372;8.580;2023-06-22T07:25:13;26.90;95.40
32787;DHT22;19139;49.372;8.580;2023-06-22T07:27:57;26.90;95.10
32787;DHT22;19139;49.372;8.580;2023-06-22T07:30:24;26.90;95.30
32787;DHT22;19139;49.372;8.580;2023-06-22T07:32:51;26.90;95.40
32787;DHT22;19139;49.372;8.580;2023-06-22T07:35:18;26.90;95.50
32787;DHT22;19139;49.372;8.580;2023-06-22T07:37:45;27.00;95.80
32787;DHT22;19139;49.372;8.580;2023-06-22T07:40:12;27.00;95.60
32787;DHT22;19139;49.372;8.580;2023-06-22T07:42:39;26.90;95.50
32787;DHT22;19139;49.372;8.580;2023-06-22T07:45:06;27.00;95.40
32787;DHT22;19139;49.372;8.580;2023-06-22T07:47:34;27.00;95.30
32787;DHT22;19139;49.372;8.580;2023-06-22T07:50:05;27.00;95.10
32787;DHT22;19139;49.372;8.580;2023-06-22T07:52:32;27.00;95.00
32787;DHT22;19139;49.372;8.580;2023-06-22T07:54:59;27.00;94.80
32787;DHT22;19139;49.372;8.580;2023-06-22T07:57:26;27.00;94.70
32787;DHT22;19139;49.372;8.580;2023-06-22T08:00:02;27.10;94.90
32787;DHT22;19139;49.372;8.580;2023-06-22T08:02:31;27.00;94.70
32787;DHT22;19139;49.372;8.580;2023-06-22T08:04:57;27.10;94.60
32787;DHT22;19139;49.372;8.580;2023-06-22T08:07:44;27.10;94.50
32787;DHT22;19139;49.372;8.580;2023-06-22T08:10:13;27.10;94.50
32787;DHT22;19139;49.372;8.580;2023-06-22T08:12:40;27.10;94.40
32787;DHT22;19139;49.372;8.580;2023-06-22T08:15:07;27.20;94.30
32787;DHT22;19139;49.372;8.580;2023-06-22T08:17:34;27.20;94.30
32787;DHT22;19139;49.372;8.580;2023-06-22T08:20:01;27.20;94.30
32787;DHT22;19139;49.372;8.580;2023-06-22T08:22:29;27.20;94.30
32787;DHT22;19139;49.372;8.580;2023-06-22T08:24:56;27.20;94.20
32787;DHT22;19139;49.372;8.580;2023-06-22T08:27:23;27.20;94.30
32787;DHT22;19139;49.372;8.580;2023-06-22T08:29:50;27.20;94.20
32787;DHT22;19139;49.372;8.580;2023-06-22T08:32:17;27.20;94.20
32787;DHT22;19139;49.372;8.580;2023-06-22T08:34:44;27.20;94.20
32787;DHT22;19139;49.372;8.580;2023-06-22T08:37:11;27.20;94.20
32787;DHT22;19139;49.372;8.580;2023-06-22T08:39:37;27.20;94.10
32787;DHT22;19139;49.372;8.580;2023-06-22T08:42:06;27.20;94.10
32787;DHT22;19139;49.372;8.580;2023-06-22T08:44:32;27.20;94.00
32787;DHT22;19139;49.372;8.580;2023-06-22T08:46:59;27.20;94.00
32787;DHT22;19139;49.372;8.580;2023-06-22T08:49:26;27.20;94.00
32787;DHT22;19139;49.372;8.580;2023-06-22T08:51:52;27.20;94.00
32787;DHT22;19139;49.372;8.580;2023-06-22T08:54:21;27.20;94.30
32787;DHT22;19139;49.372;8.580;2023-06-22T08:56:47;27.20;93.90
32787;DHT22;19139;49.372;8.580;2023-06-22T08:59:14;27.20;93.90
32787;DHT22;19139;49.372;8.580;2023-06-22T09:01:41;27.20;93.80
32787;DHT22;19139;49.372;8.580;2023-06-22T09:04:11;27.20;93.80
32787;DHT22;19139;49.372;8.580;2023-06-22T09:06:38;27.20;93.80
32787;DHT22;19139;49.372;8.580;2023-06-22T09:09:12;27.20;93.80
32787;DHT22;19139;49.372;8.580;2023-06-22T09:11:39;27.20;93.70
32787;DHT22;19139;49.372;8.580;2023-06-22T09:14:06;27.20;93.70
32787;DHT22;19139;49.372;8.580;2023-06-22T09:16:33;27.20;93.70
32787;DHT22;19139;49.372;8.580;2023-06-22T09:19:00;27.20;93.70
32787;DHT22;19139;49.372;8.580;2023-06-22T09:21:27;27.20;93.70
32787;DHT22;19139;49.372;8.580;2023-06-22T09:23:54;27.20;93.60
32787;DHT22;19139;49.372;8.580;2023-06-22T09:26:21;27.20;93.70
32787;DHT22;19139;49.372;8.580;2023-06-22T09:28:49;27.20;93.60
32787;DHT22;19139;49.372;8.580;2023-06-22T09:31:15;27.20;93.60
32787;DHT22;19139;49.372;8.580;2023-06-22T09:33:43;27.20;93.60
32787;DHT22;19139;49.372;8.580;2023-06-22T09:36:10;27.30;93.60
32787;DHT22;19139;49.372;8.580;2023-06-22T09:38:37;27.30;93.60
32787;DHT22;19139;49.372;8.580;2023-06-22T09:41:04;27.20;93.50
32787;DHT22;19139;49.372;8.580;2023-06-22T09:43:32;27.30;93.50
32787;DHT22;19139;49.372;8.580;2023-06-22T09:46:01;27.30;93.50
32787;DHT22;19139;49.372;8.580;2023-06-22T09:48:28;27.30;93.50
32787;DHT22;19139;49.372;8.580;2023-06-22T09:50:56;27.20;93.40
32787;DHT22;19139;49.372;8.580;2023-06-22T09:53:23;27.30;93.50
32787;DHT22;19139;49.372;8.580;2023-06-22T09:55:50;27.20;93.40
32787;DHT22;19139;49.372;8.580;2023-06-22T09:58:16;27.30;93.40
32787;DHT22;19139;49.372;8.580;2023-06-22T10:00:43;27.30;93.50
32787;DHT22;19139;49.372;8.580;2023-06-22T10:03:09;27.30;93.50
32787;DHT22;19139;49.372;8.580;2023-06-22T10:05:36;27.30;93.50
32787;DHT22;19139;49.372;8.580;2023-06-22T10:08:03;27.30;93.40
32787;DHT22;19139;49.372;8.580;2023-06-22T10:10:30;27.30;93.40
32787;DHT22;19139;49.372;8.580;2023-06-22T10:12:57;27.30;93.50
32787;DHT22;19139;49.372;8.580;2023-06-22T10:15:29;27.30;93.50
32787;DHT22;19139;49.372;8.580;2023-06-22T10:17:56;27.30;93.50
32787;DHT22;19139;49.372;8.580;2023-06-22T10:20:23;27.30;93.40
32787;DHT22;19139;49.372;8.580;2023-06-22T10:22:49;27.30;93.50
32787;DHT22;19139;49.372;8.580;2023-06-22T10:25:17;27.30;93.50
32787;DHT22;19139;49.372;8.580;2023-06-22T10:27:44;27.30;93.40
32787;DHT22;19139;49.372;8.580;2023-06-22T10:30:12;27.30;93.40
32787;DHT22;19139;49.372;8.580;2023-06-22T10:32:42;27.30;93.50
32787;DHT22;19139;49.372;8.580;2023-06-22T10:35:10;27.30;93.50
32787;DHT22;19139;49.372;8.580;2023-06-22T10:37:37;27.30;93.40
32787;DHT22;19139;49.372;8.580;2023-06-22T10:40:05;27.30;93.40
32787;DHT22;19139;49.372;8.580;2023-06-22T10:42:32;27.30;93.40
32787;DHT22;19139;49.372;8.580;2023-06-22T10:44:58;27.30;93.40
32787;DHT22;19139;49.372;8.580;2023-06-22T10:47:25;27.30;93.40
32787;DHT22;19139;49.372;8.580;2023-06-22T10:49:51;27.30;93.40
32787;DHT22;19139;49.372;8.580;2023-06-22T10:52:18;27.30;93.40
32787;DHT22;19139;49.372;8.580;2023-06-22T10:54:45;27.30;93.40
32787;DHT22;19139;49.372;8.580;2023-06-22T10:57:11;27.30;93.40
32787;DHT22;19139;49.372;8.580;2023-06-22T10:59:38;27.30;93.50
32787;DHT22;19139;49.372;8.580;2023-06-22T11:02:05;27.30;93.50
32787;DHT22;19139;49.372;8.580;2023-06-22T11:04:32;27.30;93.50
32787;DHT22;19139;49.372;8.580;2023-06-22T11:06:59;27.30;93.70
32787;DHT22;19139;49.372;8.580;2023-06-22T11:09:25;27.30;93.80
32787;DHT22;19139;49.372;8.580;2023-06-22T11:11:55;27.30;93.90
32787;DHT22;19139;49.372;8.580;2023-06-22T11:14:22;27.30;94.00
32787;DHT22;19139;49.372;8.580;2023-06-22T11:16:49;27.30;93.90
32787;DHT22;19139;49.372;8.580;2023-06-22T11:19:16;27.30;94.20
32787;DHT22;19139;49.372;8.580;2023-06-22T11:21:43;27.40;94.30
32787;DHT22;19139;49.372;8.580;2023-06-22T11:24:09;27.40;94.40
32787;DHT22;19139;49.372;8.580;2023-06-22T11:26:36;27.40;94.50
32787;DHT22;19139;49.372;8.580;2023-06-22T11:29:03;27.40;94.50
32787;DHT22;19139;49.372;8.580;2023-06-22T11:31:37;27.40;94.50
32787;DHT22;19139;49.372;8.580;2023-06-22T11:34:04;27.40;94.60
32787;DHT22;19139;49.372;8.580;2023-06-22T11:36:31;27.40;94.60
32787;DHT22;19139;49.372;8.580;2023-06-22T11:38:59;27.40;94.60
32787;DHT22;19139;49.372;8.580;2023-06-22T11:41:26;27.40;94.50
32787;DHT22;19139;49.372;8.580;2023-06-22T11:43:53;27.40;94.70
32787;DHT22;19139;49.372;8.580;2023-06-22T11:46:19;27.40;94.80
32787;DHT22;19139;49.372;8.580;2023-06-22T11:48:46;27.40;94.70
32787;DHT22;19139;49.372;8.580;2023-06-22T11:51:13;27.40;94.70
32787;DHT22;19139;49.372;8.580;2023-06-22T11:53:40;27.40;94.70
32787;DHT22;19139;49.372;8.580;2023-06-22T11:56:06;27.40;94.80
32787;DHT22;19139;49.372;8.580;2023-06-22T11:58:35;27.50;94.90
32787;DHT22;19139;49.372;8.580;2023-06-22T12:01:01;27.40;94.90
32787;DHT22;19139;49.372;8.580;2023-06-22T12:03:28;27.50;94.90
32787;DHT22;19139;49.372;8.580;2023-06-22T12:05:55;27.50;94.90
32787;DHT22;19139;49.372;8.580;2023-06-22T12:08:22;27.50;94.80
32787;DHT22;19139;49.372;8.580;2023-06-22T12:10:49;27.50;94.80
32787;DHT22;19139;49.372;8.580;2023-06-22T12:13:16;27.50;94.70
32787;DHT22;19139;49.372;8.580;2023-06-22T12:15:43;27.50;94.60
32787;DHT22;19139;49.372;8.580;2023-06-22T12:18:10;27.50;94.60
32787;DHT22;19139;49.372;8.580;2023-06-22T12:20:37;27.50;94.60
32787;DHT22;19139;49.372;8.580;2023-06-22T12:23:04;27.50;94.60
32787;DHT22;19139;49.372;8.580;2023-06-22T12:25:31;27.50;94.50
32787;DHT22;19139;49.372;8.580;2023-06-22T12:27:57;27.50;94.50
32787;DHT22;19139;49.372;8.580;2023-06-22T12:30:24;27.50;94.50
32787;DHT22;19139;49.372;8.580;2023-06-22T12:32:50;27.50;94.40
32787;DHT22;19139;49.372;8.580;2023-06-22T12:35:17;27.50;94.40
32787;DHT22;19139;49.372;8.580;2023-06-22T12:37:44;27.50;94.30
32787;DHT22;19139;49.372;8.580;2023-06-22T12:40:11;27.50;94.30
32787;DHT22;19139;49.372;8.580;2023-06-22T12:42:38;27.50;94.30
32787;DHT22;19139;49.372;8.580;2023-06-22T12:45:05;27.50;94.20
32787;DHT22;19139;49.372;8.580;2023-06-22T12:47:32;27.50;94.20
32787;DHT22;19139;49.372;8.580;2023-06-22T12:49:58;27.50;94.20
32787;DHT22;19139;49.372;8.580;2023-06-22T12:52:25;27.50;94.20
32787;DHT22;19139;49.372;8.580;2023-06-22T12:54:52;27.50;94.20
32787;DHT22;19139;49.372;8.580;2023-06-22T12:57:21;27.50;94.20
32787;DHT22;19139;49.372;8.580;2023-06-22T12:59:48;27.50;94.20
32787;DHT22;19139;49.372;8.580;2023-06-22T13:02:15;27.60;94.30
32787;DHT22;19139;49.372;8.580;2023-06-22T13:04:42;27.50;94.30
32787;DHT22;19139;49.372;8.580;2023-06-22T13:07:09;27.50;94.30
32787;DHT22;19139;49.372;8.580;2023-06-22T13:09:49;27.60;94.50
32787;DHT22;19139;49.372;8.580;2023-06-22T13:12:22;27.60;94.50
32787;DHT22;19139;49.372;8.580;2023-06-22T13:14:49;27.60;94.60
32787;DHT22;19139;49.372;8.580;2023-06-22T13:17:15;27.60;94.60
32787;DHT22;19139;49.372;8.580;2023-06-22T13:19:42;27.60;94.70
32787;DHT22;19139;49.372;8.580;2023-06-22T13:22:26;27.60;94.90
32787;DHT22;19139;49.372;8.580;2023-06-22T13:24:55;27.60;95.00
32787;DHT22;19139;49.372;8.580;2023-06-22T13:27:22;27.60;95.10
32787;DHT22;19139;49.372;8.580;2023-06-22T13:29:49;27.60;95.00
32787;DHT22;19139;49.372;8.580;2023-06-22T13:32:34;27.60;95.10
32787;DHT22;19139;49.372;8.580;2023-06-22T13:35:00;27.60;95.10
32787;DHT22;19139;49.372;8.580;2023-06-22T13:37:27;27.70;95.20
32787;DHT22;19139;49.372;8.580;2023-06-22T13:39:54;27.60;95.20
32787;DHT22;19139;49.372;8.580;2023-06-22T13:42:39;27.70;95.20
32787;DHT22;19139;49.372;8.580;2023-06-22T13:45:24;27.70;95.50
32787;DHT22;19139;49.372;8.580;2023-06-22T13:48:09;27.70;95.40
32787;DHT22;19139;49.372;8.580;2023-06-22T13:50:53;27.70;95.50
32787;DHT22;19139;49.372;8.580;2023-06-22T13:53:20;27.70;95.50
32787;DHT22;19139;49.372;8.580;2023-06-22T13:55:46;27.70;95.50
32787;DHT22;19139;49.372;8.580;2023-06-22T13:58:14;27.70;95.60
32787;DHT22;19139;49.372;8.580;2023-06-22T14:00:41;27.70;95.60
32787;DHT22;19139;49.372;8.580;2023-06-22T14:03:07;27.70;95.70
32787;DHT22;19139;49.372;8.580;2023-06-22T14:05:34;27.70;95.80
32787;DHT22;19139;49.372;8.580;2023-06-22T14:08:00;27.70;95.80
32787;DHT22;19139;49.372;8.580;2023-06-22T14:10:27;27.70;95.80
32787;DHT22;19139;49.372;8.580;2023-06-22T14:12:54;27.80;95.90
32787;DHT22;19139;49.372;8.580;2023-06-22T14:15:22;27.70;95.80
32787;DHT22;19139;49.372;8.580;2023-06-22T14:17:48;27.70;95.90
32787;DHT22;19139;49.372;8.580;2023-06-22T14:20:15;27.70;95.80
32787;DHT22;19139;49.372;8.580;2023-06-22T14:22:42;27.80;95.90
32787;DHT22;19139;49.372;8.580;2023-06-22T14:25:09;27.70;95.80
32787;DHT22;19139;49.372;8.580;2023-06-22T14:27:35;27.70;95.80
32787;DHT22;19139;49.372;8.580;2023-06-22T14:30:02;27.70;95.80
32787;DHT22;19139;49.372;8.580;2023-06-22T14:32:32;27.80;95.90
32787;DHT22;19139;49.372;8.580;2023-06-22T14:34:59;27.80;95.80
32787;DHT22;19139;49.372;8.580;2023-06-22T14:37:25;27.80;95.80
32787;DHT22;19139;49.372;8.580;2023-06-22T14:39:52;27.80;95.80
32787;DHT22;19139;49.372;8.580;2023-06-22T14:42:19;27.80;95.90
32787;DHT22;19139;49.372;8.580;2023-06-22T14:44:45;27.80;95.90
32787;DHT22;19139;49.372;8.580;2023-06-22T14:47:12;27.80;96.00
32787;DHT22;19139;49.372;8.580;2023-06-22T14:49:39;27.80;96.00
32787;DHT22;19139;49.372;8.580;2023-06-22T14:52:05;27.80;96.00
32787;DHT22;19139;49.372;8.580;2023-06-22T14:54:34;27.80;96.00
32787;DHT22;19139;49.372;8.580;2023-06-22T14:57:00;27.80;96.00
32787;DHT22;19139;49.372;8.580;2023-06-22T14:59:27;27.80;96.20
32787;DHT22;19139;49.372;8.580;2023-06-22T15:01:54;27.90;96.20
32787;DHT22;19139;49.372;8.580;2023-06-22T15:04:21;27.90;96.30
32787;DHT22;19139;49.372;8.580;2023-06-22T15:06:47;27.80;96.10
32787;DHT22;19139;49.372;8.580;2023-06-22T15:09:14;27.80;96.10
32787;DHT22;19139;49.372;8.580;2023-06-22T15:11:41;27.80;96.00
32787;DHT22;19139;49.372;8.580;2023-06-22T15:14:08;27.90;96.00
32787;DHT22;19139;49.372;8.580;2023-06-22T15:16:37;27.90;95.90
32787;DHT22;19139;49.372;8.580;2023-06-22T15:19:04;27.90;95.90
32787;DHT22;19139;49.372;8.580;2023-06-22T15:21:31;27.90;95.90
32787;DHT22;19139;49.372;8.580;2023-06-22T15:23:57;27.90;95.80
32787;DHT22;19139;49.372;8.580;2023-06-22T15:26:24;27.90;95.90
32787;DHT22;19139;49.372;8.580;2023-06-22T15:28:51;27.90;96.00
32787;DHT22;19139;49.372;8.580;2023-06-22T15:31:17;27.90;95.90
32787;DHT22;19139;49.372;8.580;2023-06-22T15:33:44;27.90;95.80
32787;DHT22;19139;49.372;8.580;2023-06-22T15:36:11;27.90;95.90
32787;DHT22;19139;49.372;8.580;2023-06-22T15:38:38;27.90;95.90